Terminal Aerodrome Forecast
Issued by NWS Albany, NY

Home | Current Version | Previous Version | Text Only | Print | Product List | Glossary On
Versions: 1 2 3 4 5 6 7 8 9 10 11 12 13 14
000
FTUS41 KALY 270541
TAFALB
TAF
KALB 270541Z 2706/2806 18007KT 6SM -SHRA BR OVC040
      TEMPO 2706/2709 4SM -SHRA BR OVC025
     FM270900 21006KT 5SM BR OVC025
      TEMPO 2709/2712 BKN007 OVC015
     FM271400 21004KT P6SM BKN050
     FM271700 21005KT P6SM SCT050
     FM272200 VRB03KT P6SM SKC=

USA.gov is the U.S. government's official web portal to all federal, state and local government web resources and services.